Time;durP1;ratioP1;P1;durP2;ratioP2;P2;SDS_P1;SDS_P2;PMS_P1;PMS_P2;Temp;Humidity;BMP_temperature;BMP_pressure;BME280_temperature;BME280_humidity;BME280_pressure;Samples;Min_cycle;Max_cycle;Signal;HPM_P1;HPM_P2
2023/08/23 00:02:11;;;;;;;3.88;3.58;;;27.40;61.10;;;;;;5037868;28;20214;-82
2023/08/23 00:04:38;;;;;;;3.88;3.50;;;27.40;61.20;;;;;;5037952;28;20194;-82
2023/08/23 00:07:05;;;;;;;4.30;3.92;;;27.40;61.20;;;;;;5037759;28;20202;-82
2023/08/23 00:09:32;;;;;;;3.85;3.38;;;27.40;61.30;;;;;;5036644;28;20199;-82
2023/08/23 00:11:59;;;;;;;3.58;3.28;;;27.40;61.30;;;;;;5036526;28;20305;-82
2023/08/23 00:14:26;;;;;;;3.70;3.22;;;27.40;61.40;;;;;;5036783;28;20191;-82
2023/08/23 00:16:55;;;;;;;3.80;3.40;;;27.40;61.40;;;;;;5036920;28;20252;-82
2023/08/23 00:19:22;;;;;;;3.60;3.30;;;27.40;61.50;;;;;;5037442;28;20203;-82
2023/08/23 00:21:49;;;;;;;3.63;3.33;;;27.40;61.50;;;;;;5037034;28;20599;-82
2023/08/23 00:24:16;;;;;;;3.35;3.13;;;27.30;61.40;;;;;;5037574;28;20237;-82
2023/08/23 00:26:43;;;;;;;3.50;3.20;;;27.30;61.40;;;;;;5037214;28;20205;-82
2023/08/23 00:29:10;;;;;;;3.65;3.20;;;27.30;61.60;;;;;;5036854;28;20194;-82
2023/08/23 00:31:37;;;;;;;3.60;3.30;;;27.30;61.60;;;;;;5053501;28;20239;-82
2023/08/23 00:34:06;;;;;;;3.70;3.30;;;27.30;61.50;;;;;;5037075;28;20226;-82
2023/08/23 00:36:34;;;;;;;3.50;3.30;;;27.30;61.60;;;;;;5053932;28;20190;-82
2023/08/23 00:39:02;;;;;;;3.97;3.67;;;27.30;61.60;;;;;;5036964;28;20218;-82
2023/08/23 00:41:30;;;;;;;3.63;3.20;;;27.30;61.70;;;;;;5037253;28;20307;-82
2023/08/23 00:43:57;;;;;;;3.47;3.17;;;27.30;61.70;;;;;;5037218;28;20210;-82
2023/08/23 00:46:24;;;;;;;3.38;3.13;;;27.30;61.70;;;;;;5036628;28;20198;-82
2023/08/23 00:48:51;;;;;;;3.90;3.55;;;27.20;61.60;;;;;;5054377;28;20649;-82
2023/08/23 00:51:19;;;;;;;3.85;3.17;;;27.20;61.60;;;;;;5036410;28;20218;-82
2023/08/23 00:53:47;;;;;;;3.40;3.20;;;27.20;61.70;;;;;;5053671;28;20203;-82
2023/08/23 00:56:13;;;;;;;4.00;3.40;;;27.20;61.70;;;;;;5039640;28;20203;-82
2023/08/23 00:58:40;;;;;;;3.30;3.10;;;27.20;61.70;;;;;;5040843;28;20203;-81
2023/08/23 01:01:07;;;;;;;3.65;3.35;;;27.20;61.70;;;;;;5040952;28;20210;-82
2023/08/23 01:03:34;;;;;;;5.05;3.75;;;27.10;61.60;;;;;;5050699;28;20201;-82
2023/08/23 01:06:23;;;;;;;3.72;3.42;;;27.10;61.60;;;;;;5063184;28;20221;-82
2023/08/23 01:08:59;;;;;;;3.65;3.35;;;27.10;61.60;;;;;;5048139;28;20602;-82
2023/08/23 01:11:30;;;;;;;3.67;3.38;;;27.20;61.80;;;;;;5040911;28;20306;-82
2023/08/23 01:14:00;;;;;;;3.55;3.25;;;27.10;61.70;;;;;;5040766;28;20198;-82
2023/08/23 01:16:27;;;;;;;3.45;3.15;;;27.10;61.70;;;;;;5039542;28;20641;-82
2023/08/23 01:18:54;;;;;;;3.70;3.40;;;27.10;61.70;;;;;;5039357;28;20198;-82
2023/08/23 01:21:26;;;;;;;3.38;3.08;;;27.10;61.70;;;;;;5038934;28;20210;-82
2023/08/23 01:23:54;;;;;;;3.47;3.20;;;27.10;61.80;;;;;;5038697;28;20301;-82
2023/08/23 01:26:21;;;;;;;3.30;3.00;;;27.10;61.80;;;;;;5039017;28;20201;-82
2023/08/23 01:28:51;;;;;;;3.53;3.20;;;27.10;61.80;;;;;;5022837;28;20228;-82
2023/08/23 01:31:20;;;;;;;4.82;3.33;;;27.00;61.80;;;;;;5022721;28;20229;-82
2023/08/23 01:33:50;;;;;;;4.50;3.30;;;27.10;61.80;;;;;;5056577;28;20191;-82
2023/08/23 01:36:19;;;;;;;3.58;3.28;;;27.00;61.80;;;;;;5055376;28;20205;-83
2023/08/23 01:38:45;;;;;;;3.17;2.92;;;26.90;61.70;;;;;;5038797;28;20233;-83
2023/08/23 01:41:14;;;;;;;3.50;3.20;;;27.00;61.80;;;;;;5038632;28;20257;-83
2023/08/23 01:43:42;;;;;;;3.85;3.40;;;27.00;61.80;;;;;;5055248;28;20657;-83
2023/08/23 01:46:09;;;;;;;3.35;3.10;;;27.00;61.80;;;;;;5038722;28;20293;-83
2023/08/23 01:48:35;;;;;;;3.40;3.10;;;27.00;61.80;;;;;;5038461;28;20199;-83
2023/08/23 01:51:04;;;;;;;3.65;3.20;;;27.00;61.70;;;;;;5040051;28;20682;-83
2023/08/23 01:53:31;;;;;;;3.65;3.35;;;27.00;61.80;;;;;;5038737;28;20198;-83
2023/08/23 01:55:59;;;;;;;3.63;3.33;;;27.00;61.70;;;;;;5038643;28;20201;-83
2023/08/23 01:58:28;;;;;;;3.78;3.38;;;26.90;61.70;;;;;;5038611;28;20209;-83
2023/08/23 02:00:55;;;;;;;3.40;3.20;;;26.90;61.70;;;;;;5038699;28;20225;-83
2023/08/23 02:03:22;;;;;;;3.42;3.13;;;26.90;61.70;;;;;;5039249;28;20206;-83
2023/08/23 02:05:50;;;;;;;3.72;3.42;;;26.90;62.50;;;;;;5040936;28;20385;-83
2023/08/23 02:08:18;;;;;;;3.30;3.10;;;26.90;61.70;;;;;;5056710;28;20199;-82
2023/08/23 02:10:45;;;;;;;3.65;2.90;;;26.90;61.70;;;;;;5040295;28;20269;-83
2023/08/23 02:13:12;;;;;;;3.53;3.22;;;26.90;61.70;;;;;;5061688;28;20225;-83
2023/08/23 02:15:40;;;;;;;3.72;3.38;;;26.90;61.60;;;;;;5062120;28;20175;-82
2023/08/23 02:18:07;;;;;;;3.45;3.13;;;26.90;61.60;;;;;;5073886;28;20634;-82
2023/08/23 02:20:34;;;;;;;3.80;3.40;;;26.90;61.60;;;;;;5038257;28;20593;-83
2023/08/23 02:23:01;;;;;;;3.40;3.20;;;26.90;61.60;;;;;;5038077;28;20198;-83
2023/08/23 02:25:28;;;;;;;3.70;3.40;;;26.90;61.70;;;;;;5038342;28;20205;-83
2023/08/23 02:27:57;;;;;;;3.55;3.25;;;26.90;61.70;;;;;;5038490;28;20202;-83
2023/08/23 02:30:24;;;;;;;3.50;3.20;;;26.80;61.60;;;;;;5037879;28;20254;-83
2023/08/23 02:32:52;;;;;;;3.28;3.08;;;26.80;61.60;;;;;;5038092;28;20237;-83
2023/08/23 02:35:19;;;;;;;3.90;3.60;;;26.80;61.60;;;;;;5038630;28;20563;-83
2023/08/23 02:37:45;;;;;;;3.58;3.28;;;26.80;61.60;;;;;;5037866;28;20241;-83
2023/08/23 02:40:13;;;;;;;3.70;3.40;;;26.80;61.60;;;;;;5037974;28;20404;-83
2023/08/23 02:42:40;;;;;;;4.00;3.70;;;26.80;61.60;;;;;;5021345;28;20661;-83
2023/08/23 02:45:08;;;;;;;3.72;3.17;;;26.80;61.70;;;;;;5037920;28;20202;-83
2023/08/23 02:47:35;;;;;;;3.75;3.30;;;26.80;61.70;;;;;;5037873;28;20206;-83
2023/08/23 02:50:03;;;;;;;3.85;3.55;;;26.80;61.70;;;;;;5037817;28;20199;-83
2023/08/23 02:52:30;;;;;;;3.80;3.50;;;26.80;61.70;;;;;;5055768;28;20210;-82
2023/08/23 02:54:57;;;;;;;4.00;3.70;;;26.80;61.70;;;;;;5038034;28;20198;-83
2023/08/23 02:57:24;;;;;;;3.40;3.20;;;26.80;61.70;;;;;;5038934;28;20201;-83
2023/08/23 02:59:51;;;;;;;3.63;3.33;;;26.70;61.60;;;;;;5038167;28;20206;-83
2023/08/23 03:02:18;;;;;;;3.60;3.30;;;26.70;61.60;;;;;;5054499;28;20223;-82
2023/08/23 03:04:46;;;;;;;3.65;3.35;;;26.70;61.70;;;;;;5037317;28;20673;-82
2023/08/23 03:07:14;;;;;;;3.55;3.25;;;26.70;61.10;;;;;;5037095;28;20230;-82
2023/08/23 03:09:43;;;;;;;4.30;3.90;;;26.70;60.60;;;;;;5020996;28;20187;-83
2023/08/23 03:12:10;;;;;;;4.35;3.67;;;26.70;60.30;;;;;;5037005;28;20222;-83
2023/08/23 03:14:38;;;;;;;3.80;3.50;;;26.70;60.30;;;;;;5038119;28;20206;-82
2023/08/23 03:17:05;;;;;;;3.90;3.60;;;26.70;60.30;;;;;;5039961;28;20199;-83
2023/08/23 03:19:32;;;;;;;4.32;3.58;;;26.70;60.20;;;;;;5037914;28;20649;-82
2023/08/23 03:21:59;;;;;;;4.28;3.88;;;26.70;60.10;;;;;;5037431;28;20214;-83
2023/08/23 03:24:27;;;;;;;4.07;3.75;;;26.70;60.00;;;;;;5037731;28;20566;-83
2023/08/23 03:26:55;;;;;;;4.03;3.63;;;26.80;59.90;;;;;;5037779;28;20545;-83
2023/08/23 03:29:21;;;;;;;4.25;3.85;;;26.80;59.80;;;;;;5037535;28;20287;-83
2023/08/23 03:31:49;;;;;;;4.10;3.65;;;26.90;59.70;;;;;;5037331;28;20713;-83
2023/08/23 03:34:19;;;;;;;4.35;3.95;;;26.90;59.70;;;;;;5038222;28;20281;-83
2023/08/23 03:36:46;;;;;;;4.00;3.70;;;26.90;59.70;;;;;;5038083;28;20202;-82
2023/08/23 03:39:13;;;;;;;4.10;3.80;;;26.90;59.60;;;;;;5038447;28;20195;-82
2023/08/23 03:41:42;;;;;;;4.28;3.88;;;26.90;59.60;;;;;;5037729;28;20225;-83
2023/08/23 03:44:09;;;;;;;3.90;3.60;;;26.90;59.50;;;;;;5037885;28;20198;-83
2023/08/23 03:46:36;;;;;;;3.80;3.50;;;26.90;59.50;;;;;;5038319;28;20210;-83
2023/08/23 03:49:03;;;;;;;4.20;3.90;;;27.00;59.50;;;;;;5085734;22;20221;-82
2023/08/23 03:51:30;;;;;;;4.20;3.90;;;27.00;59.50;;;;;;5093060;28;20213;-82
2023/08/23 03:53:57;;;;;;;3.95;3.60;;;26.90;59.40;;;;;;5077288;28;20621;-83
2023/08/23 03:56:24;;;;;;;4.00;3.65;;;26.90;59.30;;;;;;5093543;28;20726;-83
2023/08/23 03:58:53;;;;;;;3.90;3.55;;;26.90;59.30;;;;;;5093398;28;20197;-83
2023/08/23 04:01:20;;;;;;;3.75;3.45;;;26.90;59.30;;;;;;5094825;28;20706;-83
2023/08/23 04:03:47;;;;;;;3.90;3.50;;;26.90;59.40;;;;;;5093399;28;20185;-83
2023/08/23 04:06:14;;;;;;;4.03;3.72;;;27.00;59.40;;;;;;5092981;28;20193;-83
2023/08/23 04:08:41;;;;;;;3.95;3.60;;;26.90;59.40;;;;;;5092639;28;20194;-83
2023/08/23 04:11:09;;;;;;;3.88;3.53;;;26.90;59.30;;;;;;5092682;28;20221;-83
2023/08/23 04:13:35;;;;;;;3.90;3.60;;;26.90;59.40;;;;;;5092737;28;20232;-83
2023/08/23 04:16:04;;;;;;;4.20;3.90;;;26.90;59.40;;;;;;5092848;28;20197;-83
2023/08/23 04:18:31;;;;;;;3.55;3.35;;;26.90;59.40;;;;;;5092920;28;20757;-83
2023/08/23 04:21:01;;;;;;;4.03;3.65;;;26.90;59.40;;;;;;5092561;28;20641;-83
2023/08/23 04:23:29;;;;;;;4.15;3.78;;;26.90;59.40;;;;;;5092743;28;20194;-83
2023/08/23 04:25:58;;;;;;;4.05;3.75;;;26.90;59.30;;;;;;5093790;28;20197;-82
2023/08/23 04:28:25;;;;;;;4.07;3.72;;;26.80;59.30;;;;;;5059647;28;20190;-82
2023/08/23 04:30:52;;;;;;;4.25;3.95;;;26.80;59.30;;;;;;5095789;28;20228;-82
2023/08/23 04:33:20;;;;;;;4.13;3.83;;;26.80;59.30;;;;;;5096916;28;20259;-82
2023/08/23 04:35:47;;;;;;;4.93;4.32;;;26.80;59.40;;;;;;5096934;28;20190;-82
2023/08/23 04:38:15;;;;;;;4.10;3.72;;;26.80;59.40;;;;;;5080323;28;20198;-83
2023/08/23 04:40:42;;;;;;;4.13;3.83;;;26.80;59.50;;;;;;5079702;28;20224;-83
2023/08/23 04:43:10;;;;;;;4.30;3.88;;;26.80;59.50;;;;;;5096655;28;20671;-83
2023/08/23 04:45:38;;;;;;;4.43;4.03;;;26.80;59.60;;;;;;5096880;28;20219;-83
2023/08/23 04:48:07;;;;;;;4.32;4.00;;;26.70;59.60;;;;;;5097187;28;20205;-83
2023/08/23 04:50:35;;;;;;;4.00;3.70;;;26.70;59.60;;;;;;5079665;28;20221;-83
2023/08/23 04:53:03;;;;;;;4.13;3.80;;;26.70;59.60;;;;;;5097094;28;20262;-83
2023/08/23 04:55:32;;;;;;;4.00;3.70;;;26.70;59.60;;;;;;5096926;28;20647;-83
2023/08/23 04:57:59;;;;;;;4.43;4.13;;;26.70;59.60;;;;;;5096444;28;20635;-83
2023/08/23 05:00:26;;;;;;;4.68;3.72;;;26.70;59.60;;;;;;5096208;28;20291;-83
2023/08/23 05:02:53;;;;;;;4.07;3.78;;;26.70;59.60;;;;;;5096122;28;20193;-83
2023/08/23 05:05:20;;;;;;;4.22;3.92;;;26.70;59.60;;;;;;5096306;28;20209;-83
2023/08/23 05:07:49;;;;;;;4.10;3.80;;;26.70;59.60;;;;;;5096712;28;20193;-83
2023/08/23 05:10:17;;;;;;;4.50;3.70;;;26.70;59.60;;;;;;5097527;28;20222;-83
2023/08/23 05:12:44;;;;;;;3.95;3.65;;;26.70;59.60;;;;;;5097193;28;20220;-83
2023/08/23 05:15:12;;;;;;;4.00;3.67;;;26.70;59.60;;;;;;5101018;28;20196;-83
2023/08/23 05:17:39;;;;;;;4.15;3.75;;;26.70;59.60;;;;;;5102044;28;20197;-83
2023/08/23 05:20:08;;;;;;;4.10;3.80;;;26.70;59.60;;;;;;5100093;28;20208;-84
2023/08/23 05:22:35;;;;;;;4.13;3.83;;;26.80;59.60;;;;;;5097516;28;20190;-84
2023/08/23 05:25:05;;;;;;;3.90;3.60;;;26.80;59.60;;;;;;5099259;28;20610;-84
2023/08/23 05:27:32;;;;;;;4.13;3.83;;;26.80;59.60;;;;;;5099805;28;20217;-84
2023/08/23 05:30:01;;;;;;;3.70;3.45;;;26.80;59.50;;;;;;5080314;28;20284;-84
2023/08/23 05:32:29;;;;;;;3.90;3.60;;;26.80;59.40;;;;;;5096082;28;20610;-84
2023/08/23 05:34:56;;;;;;;4.07;3.72;;;26.90;60.00;;;;;;5096310;28;20225;-84
2023/08/23 05:37:23;;;;;;;4.15;3.67;;;26.90;59.20;;;;;;5096080;28;20202;-84
2023/08/23 05:39:51;;;;;;;4.05;3.75;;;26.90;59.10;;;;;;5097409;28;20220;-84
2023/08/23 05:42:19;;;;;;;4.10;3.70;;;27.00;59.10;;;;;;5095839;28;20300;-84
2023/08/23 05:44:47;;;;;;;4.30;3.90;;;27.00;59.50;;;;;;5096264;28;20246;-84
2023/08/23 05:47:14;;;;;;;4.20;3.90;;;27.10;58.50;;;;;;5096041;28;20248;-84
2023/08/23 05:49:42;;;;;;;4.25;3.85;;;27.20;58.00;;;;;;5096039;28;20293;-84
2023/08/23 05:52:10;;;;;;;3.90;3.60;;;27.30;57.60;;;;;;5095807;28;20217;-84
2023/08/23 05:54:37;;;;;;;3.83;3.50;;;27.50;57.30;;;;;;5096280;28;20208;-84
2023/08/23 05:57:05;;;;;;;4.30;3.90;;;27.60;56.90;;;;;;5095406;28;20205;-84
2023/08/23 05:59:33;;;;;;;3.85;3.55;;;27.80;56.40;;;;;;5095149;28;20197;-83
2023/08/23 06:02:01;;;;;;;4.20;3.90;;;27.90;56.20;;;;;;5095567;28;20634;-84
2023/08/23 06:04:28;;;;;;;3.83;3.53;;;28.00;56.00;;;;;;5095183;28;20196;-84
2023/08/23 06:06:55;;;;;;;3.67;3.38;;;28.10;55.90;;;;;;5095179;28;20205;-84
2023/08/23 06:09:22;;;;;;;4.13;3.72;;;28.20;55.60;;;;;;5095154;28;20198;-84
2023/08/23 06:11:49;;;;;;;3.80;3.58;;;28.30;55.40;;;;;;5095900;28;20295;-84
2023/08/23 06:14:18;;;;;;;4.05;3.70;;;28.40;55.20;;;;;;5078423;28;20222;-84
2023/08/23 06:16:46;;;;;;;5.03;3.80;;;28.50;54.90;;;;;;5078294;28;20292;-84
2023/08/23 06:19:13;;;;;;;4.28;3.97;;;28.60;54.80;;;;;;5095031;28;20197;-84
2023/08/23 06:21:41;;;;;;;3.40;3.20;;;28.70;54.60;;;;;;5095006;28;20213;-84
2023/08/23 06:24:08;;;;;;;4.18;3.85;;;28.80;54.30;;;;;;5094640;28;20189;-84
2023/08/23 06:26:35;;;;;;;3.60;3.30;;;28.90;54.10;;;;;;5094541;28;20233;-84
2023/08/23 06:29:03;;;;;;;3.97;3.67;;;29.00;53.90;;;;;;5094895;28;20556;-84
2023/08/23 06:31:30;;;;;;;5.20;3.72;;;29.10;53.70;;;;;;5094687;28;20224;-84
2023/08/23 06:33:59;;;;;;;4.00;3.67;;;29.10;53.50;;;;;;5095235;28;20331;-84
2023/08/23 06:36:26;;;;;;;5.28;3.67;;;29.20;53.40;;;;;;5095126;28;20208;-84
2023/08/23 06:38:53;;;;;;;4.20;3.80;;;29.30;53.20;;;;;;5094763;28;20277;-84
2023/08/23 06:41:20;;;;;;;4.22;3.60;;;29.30;52.90;;;;;;5094410;28;20248;-84
2023/08/23 06:43:48;;;;;;;3.97;3.50;;;29.40;52.80;;;;;;5077118;28;20289;-84
2023/08/23 06:46:15;;;;;;;3.75;3.45;;;29.50;52.60;;;;;;5077107;28;20197;-84
2023/08/23 06:48:42;;;;;;;3.95;3.60;;;29.60;52.50;;;;;;5077202;28;20236;-84
2023/08/23 06:51:10;;;;;;;3.95;3.55;;;29.60;52.40;;;;;;5093910;28;20217;-84
2023/08/23 06:53:37;;;;;;;4.00;3.70;;;29.70;52.30;;;;;;5094757;28;20216;-84
2023/08/23 06:56:08;;;;;;;4.20;3.80;;;29.80;52.10;;;;;;5094080;28;20198;-84
2023/08/23 06:58:35;;;;;;;4.50;4.10;;;29.80;52.00;;;;;;5077410;28;20600;-84
2023/08/23 07:01:02;;;;;;;4.43;4.03;;;29.90;51.80;;;;;;5093939;28;20225;-84
2023/08/23 07:03:29;;;;;;;4.25;3.85;;;30.00;52.40;;;;;;5093868;28;20189;-84
2023/08/23 07:05:56;;;;;;;4.28;3.75;;;30.00;51.60;;;;;;5094333;28;20656;-84
2023/08/23 07:08:24;;;;;;;4.43;3.75;;;30.00;51.40;;;;;;5094033;28;20201;-84
2023/08/23 07:10:51;;;;;;;4.20;3.80;;;30.10;51.30;;;;;;5094020;28;20213;-83
2023/08/23 07:13:18;;;;;;;4.38;3.95;;;30.10;51.20;;;;;;5094163;28;20225;-84
2023/08/23 07:15:45;;;;;;;4.18;3.78;;;30.20;51.10;;;;;;5093597;28;20201;-84
2023/08/23 07:18:12;;;;;;;3.70;3.40;;;30.20;51.00;;;;;;5093579;28;20247;-84
2023/08/23 07:20:39;;;;;;;3.78;3.47;;;30.30;50.90;;;;;;5094017;28;20583;-84
2023/08/23 07:23:06;;;;;;;4.35;3.95;;;30.30;50.80;;;;;;5093899;28;20204;-84
2023/08/23 07:25:34;;;;;;;4.55;4.13;;;30.40;50.70;;;;;;5094064;28;20254;-84
2023/08/23 07:28:01;;;;;;;3.88;3.58;;;30.40;50.60;;;;;;5092604;28;20213;-84
2023/08/23 07:30:29;;;;;;;7.10;3.85;;;30.50;50.50;;;;;;5092219;28;20213;-84
2023/08/23 07:32:55;;;;;;;5.97;3.80;;;30.50;50.60;;;;;;5077773;28;20667;-84
2023/08/23 07:35:22;;;;;;;5.88;4.13;;;30.50;50.40;;;;;;5092214;28;20655;-84
2023/08/23 07:37:50;;;;;;;6.32;3.85;;;30.60;50.00;;;;;;5092238;28;20201;-83
2023/08/23 07:40:16;;;;;;;4.97;3.88;;;30.60;50.00;;;;;;5093308;28;20614;-83
2023/08/23 07:42:45;;;;;;;6.57;4.15;;;30.70;50.10;;;;;;5092103;28;20258;-83
2023/08/23 07:45:12;;;;;;;4.30;3.75;;;30.70;50.30;;;;;;5094383;28;20197;-83
2023/08/23 07:47:39;;;;;;;4.45;3.67;;;30.80;50.30;;;;;;5096286;28;20736;-82
2023/08/23 07:50:07;;;;;;;6.63;3.60;;;30.80;50.10;;;;;;5094404;28;20201;-82
2023/08/23 07:52:36;;;;;;;6.15;4.05;;;30.80;50.00;;;;;;5093169;28;20199;-83
2023/08/23 07:55:05;;;;;;;9.35;3.80;;;30.80;50.00;;;;;;5093384;28;20289;-83
2023/08/23 07:57:32;;;;;;;3.50;3.20;;;30.80;50.10;;;;;;5093385;28;20193;-84
2023/08/23 08:00:00;;;;;;;6.85;4.00;;;30.80;50.10;;;;;;5093567;28;20600;-82
2023/08/23 08:02:29;;;;;;;4.22;3.83;;;30.80;50.10;;;;;;5092574;28;20205;-83
2023/08/23 08:04:56;;;;;;;3.90;3.58;;;30.70;50.10;;;;;;5095423;28;20193;-83
2023/08/23 08:07:23;;;;;;;4.70;3.50;;;30.80;50.10;;;;;;5097175;28;20193;-83
2023/08/23 08:09:50;;;;;;;5.13;4.35;;;30.80;50.10;;;;;;5097891;28;20204;-82
2023/08/23 08:12:17;;;;;;;4.10;3.70;;;30.80;49.90;;;;;;5096815;28;20240;-84
2023/08/23 08:14:44;;;;;;;4.70;3.90;;;30.90;49.90;;;;;;5097082;28;20209;-83
2023/08/23 08:17:13;;;;;;;4.13;3.83;;;30.90;49.80;;;;;;5097380;28;20193;-83
2023/08/23 08:19:40;;;;;;;4.93;3.90;;;31.00;49.70;;;;;;5097771;28;20296;-84
2023/08/23 08:22:07;;;;;;;4.15;3.53;;;31.00;49.60;;;;;;5097536;28;20224;-83
2023/08/23 08:24:34;;;;;;;4.38;3.97;;;31.00;49.50;;;;;;5081306;28;20200;-84
2023/08/23 08:27:02;;;;;;;4.53;4.00;;;31.00;49.50;;;;;;5097082;28;20202;-83
2023/08/23 08:29:29;;;;;;;5.05;4.03;;;31.00;49.50;;;;;;5080175;28;20199;-84
2023/08/23 08:31:56;;;;;;;5.28;4.10;;;31.00;49.50;;;;;;5096567;28;20688;-84
2023/08/23 08:34:24;;;;;;;4.85;3.90;;;31.00;49.50;;;;;;5080114;28;20233;-83
2023/08/23 08:36:51;;;;;;;4.47;3.80;;;31.00;49.60;;;;;;5096603;28;20197;-84
2023/08/23 08:39:18;;;;;;;4.75;4.07;;;31.00;49.80;;;;;;5096492;28;20274;-83
2023/08/23 08:41:46;;;;;;;7.13;3.80;;;30.90;49.80;;;;;;5097200;28;20213;-83
2023/08/23 08:44:13;;;;;;;4.70;4.05;;;30.90;49.90;;;;;;5097099;28;20201;-84
2023/08/23 08:46:40;;;;;;;4.32;3.92;;;30.90;50.00;;;;;;5096796;28;20193;-83
2023/08/23 08:49:07;;;;;;;4.13;3.60;;;30.90;49.90;;;;;;5097091;28;20209;-83
2023/08/23 08:51:37;;;;;;;5.78;3.97;;;31.00;49.90;;;;;;5096922;28;20214;-83
2023/08/23 08:54:05;;;;;;;4.22;3.83;;;31.00;49.70;;;;;;5096053;28;20213;-82
2023/08/23 08:56:32;;;;;;;4.13;3.72;;;31.00;49.60;;;;;;5096080;28;20220;-82
2023/08/23 08:58:59;;;;;;;4.55;3.70;;;31.10;49.50;;;;;;5097153;28;20193;-84
2023/08/23 09:01:26;;;;;;;4.20;3.80;;;31.20;49.40;;;;;;5096913;28;20221;-83
2023/08/23 09:03:53;;;;;;;3.88;3.58;;;31.20;49.30;;;;;;5097415;28;20217;-83
2023/08/23 09:06:20;;;;;;;4.30;3.80;;;31.30;49.90;;;;;;5097389;28;20200;-83
2023/08/23 09:08:49;;;;;;;4.10;3.80;;;31.30;49.30;;;;;;5096727;28;20205;-84
2023/08/23 09:11:16;;;;;;;3.72;3.42;;;31.30;49.40;;;;;;5096454;28;20288;-82
2023/08/23 09:13:43;;;;;;;3.83;3.53;;;31.30;49.40;;;;;;5096564;28;20266;-83
2023/08/23 09:16:10;;;;;;;4.35;3.80;;;31.30;49.40;;;;;;5097573;28;20197;-84
2023/08/23 09:18:37;;;;;;;4.30;3.90;;;31.30;49.40;;;;;;5098317;28;20197;-84
2023/08/23 09:21:04;;;;;;;3.95;3.63;;;31.30;49.30;;;;;;5096426;28;20221;-84
2023/08/23 09:23:35;;;;;;;4.10;3.70;;;31.40;49.10;;;;;;5096337;28;20197;-84
2023/08/23 09:26:03;;;;;;;4.05;3.65;;;31.40;49.10;;;;;;5096373;28;20186;-84
2023/08/23 09:28:30;;;;;;;3.53;3.22;;;31.40;49.30;;;;;;5097656;28;20636;-83
2023/08/23 09:30:57;;;;;;;4.07;3.67;;;31.40;49.40;;;;;;5096182;28;20217;-84
2023/08/23 09:33:24;;;;;;;4.22;3.83;;;31.30;49.30;;;;;;5097053;28;20201;-83
2023/08/23 09:35:52;;;;;;;4.20;3.72;;;31.30;49.50;;;;;;5096380;28;20561;-84
2023/08/23 09:38:20;;;;;;;4.05;3.65;;;31.30;49.60;;;;;;5096999;28;20242;-83
2023/08/23 09:40:47;;;;;;;4.30;3.78;;;31.20;49.70;;;;;;5095437;28;20217;-83
2023/08/23 09:43:16;;;;;;;3.90;3.60;;;31.20;49.70;;;;;;5095593;28;20608;-84
2023/08/23 09:45:43;;;;;;;3.92;3.60;;;31.10;49.90;;;;;;5095348;28;20210;-83
2023/08/23 09:50:56;;;;;;;3.80;3.50;;;31.00;50.10;;;;;;5055810;28;20229;-83
2023/08/23 09:53:24;;;;;;;3.75;3.45;;;31.00;50.20;;;;;;5042816;28;20198;-83
2023/08/23 09:55:51;;;;;;;3.97;3.58;;;30.90;50.20;;;;;;5045964;28;20205;-83
2023/08/23 09:58:19;;;;;;;3.83;3.53;;;30.90;50.30;;;;;;5045591;28;20210;-83
2023/08/23 10:00:48;;;;;;;4.10;3.78;;;30.80;50.40;;;;;;5035167;28;20225;-83
2023/08/23 10:03:15;;;;;;;4.25;3.95;;;30.80;50.50;;;;;;5058822;28;20194;-83
2023/08/23 10:05:42;;;;;;;3.83;3.53;;;30.80;50.50;;;;;;5045686;28;20570;-83
2023/08/23 10:08:09;;;;;;;3.70;3.40;;;30.80;50.60;;;;;;5038895;28;20205;-83
2023/08/23 10:10:36;;;;;;;4.22;3.80;;;30.80;50.60;;;;;;5022373;28;20222;-83
2023/08/23 10:13:05;;;;;;;3.83;3.50;;;30.80;50.50;;;;;;5055151;28;20281;-83
2023/08/23 10:15:34;;;;;;;4.10;3.80;;;30.90;50.60;;;;;;5054852;28;20225;-83
2023/08/23 10:18:03;;;;;;;3.72;3.42;;;30.90;50.50;;;;;;5038120;28;20666;-83
2023/08/23 10:20:33;;;;;;;3.83;3.53;;;31.00;50.30;;;;;;5038501;28;20689;-83
2023/08/23 10:23:00;;;;;;;3.53;3.33;;;31.00;50.20;;;;;;5038664;28;20191;-83
2023/08/23 10:25:27;;;;;;;4.30;3.90;;;31.10;50.20;;;;;;5038041;28;20194;-83
2023/08/23 10:27:55;;;;;;;3.55;3.25;;;31.10;50.10;;;;;;5036968;28;20198;-83
2023/08/23 10:30:24;;;;;;;4.25;3.85;;;31.10;50.10;;;;;;5038492;28;20215;-83
2023/08/23 10:32:52;;;;;;;3.92;3.47;;;31.10;50.10;;;;;;5038511;28;20190;-83
2023/08/23 10:35:24;;;;;;;3.70;3.40;;;31.10;50.10;;;;;;5038307;28;20219;-83
2023/08/23 10:37:53;;;;;;;3.88;3.60;;;31.10;50.10;;;;;;5054397;28;20718;-84
2023/08/23 10:40:21;;;;;;;3.85;3.55;;;31.10;50.30;;;;;;5054701;28;20600;-84
2023/08/23 10:42:49;;;;;;;3.50;3.20;;;31.10;50.40;;;;;;5055046;28;20230;-84
2023/08/23 10:45:16;;;;;;;3.60;3.30;;;31.00;50.50;;;;;;5055044;28;20534;-84
2023/08/23 10:47:44;;;;;;;3.80;3.50;;;31.00;50.50;;;;;;5044723;28;20195;-84
2023/08/23 10:50:13;;;;;;;3.75;3.45;;;31.00;50.60;;;;;;5045670;28;20575;-83
2023/08/23 10:52:40;;;;;;;3.78;3.47;;;31.00;50.70;;;;;;5038574;28;20229;-84
2023/08/23 10:55:08;;;;;;;3.30;3.03;;;31.00;50.80;;;;;;5037736;28;20221;-84
2023/08/23 10:57:35;;;;;;;3.50;3.20;;;30.90;50.80;;;;;;5021790;28;20183;-84
2023/08/23 11:00:02;;;;;;;3.80;3.50;;;30.90;50.80;;;;;;5037527;28;20685;-83
2023/08/23 11:02:31;;;;;;;3.83;3.53;;;30.90;50.90;;;;;;5037644;28;20237;-83
2023/08/23 11:04:58;;;;;;;4.20;3.90;;;30.90;51.00;;;;;;5021531;28;20286;-83
2023/08/23 11:07:27;;;;;;;3.70;3.40;;;30.90;51.10;;;;;;5038293;28;20199;-84
2023/08/23 11:09:54;;;;;;;3.55;3.35;;;30.90;51.10;;;;;;5037861;28;20203;-84
2023/08/23 11:12:21;;;;;;;3.75;3.45;;;30.80;51.10;;;;;;5047111;28;20229;-84
2023/08/23 11:14:48;;;;;;;3.53;3.22;;;30.80;51.10;;;;;;5038622;28;20210;-84
2023/08/23 11:17:16;;;;;;;3.45;3.20;;;30.80;51.20;;;;;;5054724;28;20209;-84
2023/08/23 11:19:43;;;;;;;4.07;3.50;;;30.70;51.20;;;;;;5038640;28;20600;-84
2023/08/23 11:22:10;;;;;;;3.70;3.40;;;30.70;51.30;;;;;;5038058;28;20333;-84
2023/08/23 11:24:39;;;;;;;3.80;3.50;;;30.80;52.00;;;;;;5037893;28;20222;-84
2023/08/23 11:27:13;;;;;;;3.70;3.40;;;30.70;51.50;;;;;;5038905;28;20187;-84
2023/08/23 11:29:40;;;;;;;3.65;3.35;;;30.70;52.10;;;;;;5038622;28;20571;-84
2023/08/23 11:32:07;;;;;;;3.55;3.30;;;30.70;51.60;;;;;;5042871;28;20206;-84
2023/08/23 11:34:34;;;;;;;3.63;3.33;;;30.70;51.70;;;;;;5077641;28;20215;-84
2023/08/23 11:37:09;;;;;;;3.80;3.50;;;30.70;51.70;;;;;;5077740;28;20199;-84
2023/08/23 11:39:36;;;;;;;3.58;3.30;;;30.70;51.80;;;;;;5057552;28;20617;-83
2023/08/23 11:42:05;;;;;;;3.53;3.22;;;30.60;51.80;;;;;;5054571;28;20234;-83
2023/08/23 11:44:32;;;;;;;3.85;3.50;;;30.60;51.90;;;;;;5038367;28;20190;-83
2023/08/23 11:46:59;;;;;;;3.50;3.20;;;30.70;52.00;;;;;;5037052;28;20195;-83
2023/08/23 11:49:27;;;;;;;3.83;3.53;;;30.60;52.00;;;;;;5036774;28;20301;-83
2023/08/23 11:51:54;;;;;;;3.38;3.15;;;30.60;52.10;;;;;;5037044;28;20223;-84
2023/08/23 11:54:22;;;;;;;3.50;3.20;;;30.60;52.20;;;;;;5036754;28;20222;-84
2023/08/23 11:56:49;;;;;;;3.65;3.42;;;30.60;52.30;;;;;;5036804;28;20203;-83
2023/08/23 11:59:18;;;;;;;3.40;3.20;;;30.60;52.30;;;;;;5037026;28;20570;-84
2023/08/23 12:01:45;;;;;;;4.10;3.80;;;30.60;52.30;;;;;;5053623;28;20225;-84
2023/08/23 12:04:12;;;;;;;3.58;3.28;;;30.60;52.30;;;;;;5054252;28;20203;-84
2023/08/23 12:06:40;;;;;;;3.17;2.97;;;30.60;52.30;;;;;;5037390;28;20214;-84
2023/08/23 12:09:08;;;;;;;3.40;3.20;;;30.60;52.30;;;;;;5037388;28;20194;-84
2023/08/23 12:11:35;;;;;;;3.78;3.47;;;30.60;52.40;;;;;;5056290;28;20214;-83
2023/08/23 12:14:04;;;;;;;3.83;3.42;;;30.60;52.50;;;;;;5038702;28;20205;-83
2023/08/23 12:16:32;;;;;;;3.60;3.30;;;30.60;52.70;;;;;;5037222;28;20225;-83
2023/08/23 12:18:59;;;;;;;3.33;3.13;;;30.60;52.80;;;;;;5037266;28;20187;-83
2023/08/23 12:21:26;;;;;;;3.67;3.38;;;30.50;52.70;;;;;;5056273;28;20225;-83
2023/08/23 12:23:53;;;;;;;3.38;3.17;;;30.50;53.10;;;;;;5042317;28;20202;-84
2023/08/23 12:26:22;;;;;;;3.97;3.47;;;30.40;53.00;;;;;;5038785;28;20245;-83
2023/08/23 12:28:49;;;;;;;3.72;3.42;;;30.40;53.00;;;;;;5040281;28;20199;-84
2023/08/23 12:31:16;;;;;;;3.70;3.40;;;30.50;53.10;;;;;;5040234;28;20218;-84
2023/08/23 12:33:44;;;;;;;3.72;3.42;;;30.40;53.00;;;;;;5056596;28;20209;-84
2023/08/23 12:36:13;;;;;;;3.67;3.30;;;30.50;53.70;;;;;;5059944;28;20219;-84
2023/08/23 12:38:40;;;;;;;3.63;3.28;;;30.50;53.10;;;;;;5050310;28;20206;-84
2023/08/23 12:41:07;;;;;;;3.22;3.00;;;30.50;53.10;;;;;;5053164;28;20219;-84
2023/08/23 12:43:34;;;;;;;3.63;3.35;;;30.40;53.00;;;;;;5052317;28;20262;-84
2023/08/23 12:46:01;;;;;;;3.50;3.20;;;30.40;53.00;;;;;;5066987;28;20195;-84
2023/08/23 12:48:28;;;;;;;4.20;3.38;;;30.50;53.10;;;;;;5041841;28;20266;-84
2023/08/23 12:50:56;;;;;;;3.47;3.20;;;30.40;53.10;;;;;;5041921;28;20227;-84
2023/08/23 12:53:23;;;;;;;3.47;3.17;;;30.40;53.10;;;;;;5044645;28;20205;-84